Time;durP1;ratioP1;P1;durP2;ratioP2;P2;SDS_P1;SDS_P2;PMS_P1;PMS_P2;Temp;Humidity;BMP_temperature;BMP_pressure;BME280_temperature;BME280_humidity;BME280_pressure;Samples;Min_cycle;Max_cycle;Signal;HPM_P1;HPM_P2
2022/10/27 00:00:43;;;;;;;6.97;5.95;;;11.20;99.90;;;;;;5079003;28;20182;-73
2022/10/27 00:03:10;;;;;;;7.63;6.60;;;11.10;99.90;;;;;;5082661;28;20549;-73
2022/10/27 00:05:36;;;;;;;7.03;6.47;;;11.10;99.90;;;;;;5081815;28;20194;-73
2022/10/27 00:08:01;;;;;;;7.72;6.78;;;11.10;99.90;;;;;;5087882;28;20186;-73
2022/10/27 00:10:27;;;;;;;7.45;6.70;;;11.00;99.90;;;;;;5082829;28;20186;-73
2022/10/27 00:12:53;;;;;;;7.53;6.35;;;11.00;99.90;;;;;;5068652;28;20183;-73
2022/10/27 00:15:19;;;;;;;7.30;5.95;;;11.00;99.90;;;;;;5071721;28;20314;-74
2022/10/27 00:17:44;;;;;;;7.53;5.85;;;10.90;99.90;;;;;;5074718;28;20182;-74
2022/10/27 00:20:11;;;;;;;7.65;6.32;;;10.90;99.90;;;;;;5069638;28;20236;-73
2022/10/27 00:22:36;;;;;;;6.88;6.28;;;10.90;99.90;;;;;;5073157;28;20181;-74
2022/10/27 00:25:02;;;;;;;6.80;6.20;;;10.90;99.90;;;;;;5072615;28;20249;-73
2022/10/27 00:27:28;;;;;;;6.97;6.28;;;10.90;99.90;;;;;;5069873;28;20181;-73
2022/10/27 00:29:53;;;;;;;6.57;5.88;;;10.90;99.90;;;;;;5071000;28;20708;-73
2022/10/27 00:32:19;;;;;;;7.75;5.97;;;10.90;99.90;;;;;;5070808;28;20195;-73
2022/10/27 00:34:45;;;;;;;10.07;7.50;;;10.90;99.90;;;;;;5085604;28;20202;-76
2022/10/27 00:37:11;;;;;;;7.07;5.88;;;10.80;99.90;;;;;;5073225;28;20761;-73
2022/10/27 00:39:36;;;;;;;7.35;6.65;;;10.80;99.90;;;;;;5075055;28;20259;-73
2022/10/27 00:42:03;;;;;;;6.95;6.30;;;10.80;99.90;;;;;;5079165;28;20176;-74
2022/10/27 00:44:30;;;;;;;7.50;6.32;;;10.80;99.90;;;;;;5079879;28;20198;-72
2022/10/27 00:47:01;;;;;;;7.03;5.95;;;10.70;99.90;;;;;;5076866;28;20186;-74
2022/10/27 00:49:30;;;;;;;7.03;6.32;;;10.70;99.90;;;;;;5081600;28;20178;-73
2022/10/27 00:52:00;;;;;;;6.95;6.25;;;10.70;99.90;;;;;;5084907;28;20190;-74
2022/10/27 00:54:29;;;;;;;7.07;6.13;;;10.80;99.90;;;;;;5088356;28;20209;-73
2022/10/27 00:56:56;;;;;;;7.50;6.13;;;10.70;99.90;;;;;;5083872;28;20191;-74
2022/10/27 00:59:22;;;;;;;7.93;6.35;;;10.60;99.90;;;;;;5090272;28;20189;-73
2022/10/27 01:01:50;;;;;;;6.75;6.15;;;10.50;99.90;;;;;;5078932;28;20171;-74
2022/10/27 01:04:26;;;;;;;7.75;6.88;;;10.50;99.90;;;;;;5067760;28;20179;-74
2022/10/27 01:06:52;;;;;;;8.55;6.65;;;10.50;99.90;;;;;;5075864;28;20224;-74
2022/10/27 01:09:19;;;;;;;10.43;6.93;;;10.50;99.90;;;;;;5081110;28;20715;-74
2022/10/27 01:11:44;;;;;;;7.50;6.70;;;10.50;99.90;;;;;;5069749;28;20654;-74
2022/10/27 01:14:10;;;;;;;7.05;6.22;;;10.50;99.90;;;;;;5101211;28;20221;-74
2022/10/27 01:16:41;;;;;;;6.78;6.15;;;10.40;99.90;;;;;;5081033;28;20199;-73
2022/10/27 01:19:22;;;;;;;7.32;6.57;;;10.30;99.90;;;;;;5084272;28;20171;-77
2022/10/27 01:22:09;;;;;;;6.80;6.28;;;10.30;99.90;;;;;;5061592;28;20676;-75
2022/10/27 01:25:04;;;;;;;7.82;6.32;;;10.30;99.90;;;;;;5070653;28;20197;-75
2022/10/27 01:28:03;;;;;;;8.63;6.50;;;10.20;99.90;;;;;;5079925;28;20185;-74
2022/10/27 01:30:31;;;;;;;6.93;6.32;;;10.10;99.90;;;;;;5078966;28;20187;-74
2022/10/27 01:33:06;;;;;;;6.72;6.10;;;10.10;99.90;;;;;;5090197;28;20189;-74
2022/10/27 01:35:36;;;;;;;6.63;6.10;;;10.20;99.90;;;;;;5080298;28;20234;-74
2022/10/27 01:38:23;;;;;;;8.27;7.38;;;10.30;99.90;;;;;;5080651;28;20198;-74
2022/10/27 01:40:48;;;;;;;6.72;6.07;;;10.30;99.90;;;;;;5080367;28;20172;-74
2022/10/27 01:43:20;;;;;;;9.00;6.70;;;10.30;99.90;;;;;;5075959;28;20179;-75
2022/10/27 01:45:47;;;;;;;6.90;6.18;;;10.20;99.90;;;;;;5074546;28;20264;-74
2022/10/27 01:48:13;;;;;;;6.57;5.97;;;10.10;99.90;;;;;;5064970;28;20687;-74
2022/10/27 01:50:41;;;;;;;7.20;6.53;;;10.10;99.90;;;;;;5073167;28;20577;-74
2022/10/27 01:53:07;;;;;;;7.45;6.57;;;10.00;99.90;;;;;;5086094;28;20166;-74
2022/10/27 01:55:42;;;;;;;11.05;6.40;;;10.00;99.90;;;;;;5075841;28;20215;-75
2022/10/27 01:58:13;;;;;;;7.97;6.95;;;9.90;99.90;;;;;;5088597;28;20170;-75
2022/10/27 02:00:53;;;;;;;6.97;6.32;;;9.90;99.90;;;;;;5085973;28;20223;-74
2022/10/27 02:03:43;;;;;;;7.65;6.95;;;9.90;99.90;;;;;;5076543;28;20265;-75
2022/10/27 02:06:21;;;;;;;7.65;6.95;;;9.80;99.90;;;;;;5064117;28;20216;-74
2022/10/27 02:09:07;;;;;;;7.68;6.95;;;9.70;99.90;;;;;;5084204;28;20209;-74
2022/10/27 02:11:36;;;;;;;8.18;6.20;;;9.70;99.90;;;;;;5076888;28;20237;-75
2022/10/27 02:14:02;;;;;;;7.30;6.60;;;9.70;99.90;;;;;;5071785;28;20183;-77
2022/10/27 02:16:31;;;;;;;7.53;6.50;;;9.70;99.90;;;;;;5084254;28;20202;-75
2022/10/27 02:19:02;;;;;;;6.38;5.88;;;9.60;99.90;;;;;;5089789;28;20187;-75
2022/10/27 02:21:32;;;;;;;9.25;6.00;;;9.60;99.90;;;;;;5081743;28;20179;-75
2022/10/27 02:23:58;;;;;;;7.20;6.13;;;9.50;99.90;;;;;;5078163;28;20179;-75
2022/10/27 02:26:32;;;;;;;7.45;6.75;;;9.60;99.90;;;;;;5088318;28;20285;-75
2022/10/27 02:29:06;;;;;;;9.55;6.95;;;9.50;99.90;;;;;;5083453;28;20171;-74
2022/10/27 02:31:35;;;;;;;12.65;7.00;;;9.40;99.90;;;;;;5088150;28;20171;-74
2022/10/27 02:34:02;;;;;;;7.10;6.28;;;9.50;99.90;;;;;;5084271;28;20163;-74
2022/10/27 02:36:28;;;;;;;7.35;6.50;;;9.40;99.90;;;;;;5090595;28;20190;-74
2022/10/27 02:38:54;;;;;;;10.00;6.53;;;9.40;99.90;;;;;;5079174;28;20176;-75
2022/10/27 02:41:20;;;;;;;7.88;7.05;;;9.40;99.90;;;;;;5076276;28;20189;-75
2022/10/27 02:43:45;;;;;;;7.50;6.65;;;9.30;99.90;;;;;;5084709;28;20591;-75
2022/10/27 02:46:11;;;;;;;6.95;6.35;;;9.30;99.90;;;;;;5088494;28;20297;-73
2022/10/27 02:48:37;;;;;;;6.72;6.13;;;9.30;99.90;;;;;;5089431;28;20176;-73
2022/10/27 02:51:02;;;;;;;7.22;6.28;;;9.20;99.90;;;;;;5086132;28;20171;-74
2022/10/27 02:53:28;;;;;;;6.82;6.22;;;9.20;99.90;;;;;;5081552;28;20599;-73
2022/10/27 02:55:53;;;;;;;6.68;6.18;;;9.20;99.90;;;;;;5078764;28;20209;-73
2022/10/27 02:58:19;;;;;;;7.18;6.47;;;9.20;99.90;;;;;;5074366;28;20187;-73
2022/10/27 03:00:45;;;;;;;8.02;6.07;;;9.20;99.90;;;;;;5060144;28;20200;-73
2022/10/27 03:03:10;;;;;;;6.55;6.05;;;9.20;99.90;;;;;;5083799;28;20175;-73
2022/10/27 03:05:36;;;;;;;6.70;6.03;;;9.10;99.90;;;;;;5080004;28;20207;-73
2022/10/27 03:08:02;;;;;;;6.20;5.60;;;9.10;99.90;;;;;;5085447;28;20263;-74
2022/10/27 03:10:28;;;;;;;7.75;6.88;;;9.10;99.90;;;;;;5070420;28;20188;-74
2022/10/27 03:12:53;;;;;;;8.18;5.93;;;9.00;99.90;;;;;;5078004;28;20201;-74
2022/10/27 03:15:19;;;;;;;6.25;5.75;;;9.00;99.90;;;;;;5094490;28;20206;-75
2022/10/27 03:17:46;;;;;;;6.18;5.68;;;9.00;99.90;;;;;;5080490;28;20268;-75
2022/10/27 03:20:13;;;;;;;6.40;5.80;;;9.00;99.90;;;;;;5083953;28;20557;-75
2022/10/27 03:22:39;;;;;;;6.03;5.53;;;9.00;99.90;;;;;;5084975;28;20171;-75
2022/10/27 03:25:05;;;;;;;7.60;5.95;;;8.90;99.90;;;;;;5078223;28;20293;-75
2022/10/27 03:27:31;;;;;;;7.85;5.93;;;9.00;99.90;;;;;;5086004;28;20191;-75
2022/10/27 03:29:57;;;;;;;6.15;5.53;;;9.00;99.90;;;;;;5077078;28;20193;-74
2022/10/27 03:32:22;;;;;;;5.88;5.38;;;8.90;99.90;;;;;;5092674;28;20178;-74
2022/10/27 03:34:48;;;;;;;8.43;5.70;;;8.90;99.90;;;;;;5085544;28;20237;-74
2022/10/27 03:37:14;;;;;;;5.60;5.10;;;8.90;99.90;;;;;;5077047;28;20184;-74
2022/10/27 03:39:39;;;;;;;6.38;5.78;;;8.80;99.90;;;;;;5068204;28;20194;-75
2022/10/27 03:42:05;;;;;;;6.45;5.90;;;8.80;99.90;;;;;;5084197;28;20189;-75
2022/10/27 03:44:30;;;;;;;10.57;6.13;;;8.80;99.90;;;;;;5090603;28;20229;-73
2022/10/27 03:46:56;;;;;;;10.00;6.25;;;8.80;99.90;;;;;;5079178;28;20244;-74
2022/10/27 03:49:21;;;;;;;7.43;5.82;;;8.80;99.90;;;;;;5089599;28;20641;-74
2022/10/27 03:51:47;;;;;;;6.00;5.53;;;8.80;99.90;;;;;;5081328;28;20179;-74
2022/10/27 03:54:12;;;;;;;6.18;5.57;;;8.80;99.90;;;;;;5086850;28;20193;-74
2022/10/27 03:56:38;;;;;;;7.75;5.90;;;8.80;99.90;;;;;;5088157;28;20665;-73
2022/10/27 03:59:04;;;;;;;6.60;6.00;;;8.90;99.90;;;;;;5086521;28;20212;-73
2022/10/27 04:01:32;;;;;;;6.45;5.80;;;9.00;99.90;;;;;;5087556;28;20221;-73
2022/10/27 04:03:58;;;;;;;7.80;6.03;;;9.00;99.90;;;;;;5077486;28;20167;-74
2022/10/27 04:06:24;;;;;;;6.68;5.78;;;9.00;99.90;;;;;;5069163;28;20365;-74
2022/10/27 04:08:49;;;;;;;5.95;5.35;;;9.00;99.90;;;;;;5084569;28;20227;-73
2022/10/27 04:11:15;;;;;;;7.75;6.35;;;9.00;99.90;;;;;;5076805;28;20206;-74
2022/10/27 04:13:41;;;;;;;8.18;7.30;;;9.10;99.90;;;;;;5074162;28;20228;-74
2022/10/27 04:16:07;;;;;;;12.10;7.18;;;9.20;99.90;;;;;;5088428;28;20206;-73
2022/10/27 04:18:33;;;;;;;15.80;8.00;;;9.20;99.90;;;;;;5073231;28;20179;-73
2022/10/27 04:21:00;;;;;;;10.80;7.80;;;9.30;99.90;;;;;;5060248;28;20218;-73
2022/10/27 04:23:26;;;;;;;16.42;8.88;;;9.40;99.90;;;;;;5071851;28;20171;-73
2022/10/27 04:25:51;;;;;;;23.98;9.43;;;9.40;99.90;;;;;;5086711;28;20205;-73
2022/10/27 04:28:18;;;;;;;16.10;9.45;;;9.40;99.90;;;;;;5077159;28;20696;-73
2022/10/27 04:30:44;;;;;;;19.17;9.75;;;9.40;99.90;;;;;;5072582;28;20257;-73
2022/10/27 04:33:09;;;;;;;27.20;9.48;;;9.40;99.90;;;;;;5073672;28;20645;-73
2022/10/27 04:35:35;;;;;;;23.00;9.65;;;9.50;99.90;;;;;;5079623;28;20201;-74
2022/10/27 04:38:01;;;;;;;17.05;8.93;;;9.50;99.90;;;;;;5081961;28;20182;-73
2022/10/27 04:40:26;;;;;;;23.40;8.85;;;9.50;99.90;;;;;;5058353;28;20177;-73
2022/10/27 04:42:52;;;;;;;17.80;9.15;;;9.50;99.90;;;;;;5066708;28;20187;-73
2022/10/27 04:45:17;;;;;;;14.95;9.23;;;9.60;99.90;;;;;;5082041;28;20211;-73
2022/10/27 04:47:43;;;;;;;18.17;8.90;;;9.60;99.90;;;;;;5087093;28;20668;-73
2022/10/27 04:50:09;;;;;;;13.57;8.55;;;9.60;99.90;;;;;;5079144;28;20620;-74
2022/10/27 04:52:35;;;;;;;20.77;9.20;;;9.60;99.90;;;;;;5070423;28;20179;-73
2022/10/27 04:55:00;;;;;;;17.27;9.27;;;9.70;99.90;;;;;;5083702;28;20261;-74
2022/10/27 04:57:26;;;;;;;12.30;8.70;;;9.70;99.90;;;;;;5090117;28;20170;-74
2022/10/27 04:59:52;;;;;;;11.80;8.77;;;9.80;99.90;;;;;;5073425;28;20263;-74
2022/10/27 05:02:17;;;;;;;15.93;9.23;;;9.80;99.90;;;;;;5077260;28;20270;-73
2022/10/27 05:04:43;;;;;;;14.20;8.00;;;9.80;99.90;;;;;;5064298;28;20659;-73
2022/10/27 05:07:08;;;;;;;11.25;7.85;;;9.80;99.90;;;;;;5060263;28;20427;-74
2022/10/27 05:09:34;;;;;;;13.05;8.60;;;9.90;99.90;;;;;;5062607;28;20646;-74
2022/10/27 05:11:59;;;;;;;12.13;7.78;;;9.90;99.90;;;;;;5067615;28;20239;-76
2022/10/27 05:14:25;;;;;;;10.15;7.53;;;10.00;99.90;;;;;;5071595;28;20198;-75
2022/10/27 05:16:51;;;;;;;13.70;8.32;;;10.00;99.90;;;;;;5077659;28;20594;-77
2022/10/27 05:19:16;;;;;;;10.35;7.65;;;10.00;99.90;;;;;;5067719;28;20205;-76
2022/10/27 05:21:42;;;;;;;12.02;8.27;;;10.10;99.90;;;;;;5061947;28;20274;-74
2022/10/27 05:24:08;;;;;;;12.27;9.27;;;10.10;99.90;;;;;;5078306;28;20166;-75
2022/10/27 05:26:33;;;;;;;20.33;8.82;;;10.00;99.90;;;;;;5066511;28;20621;-77
2022/10/27 05:28:59;;;;;;;19.80;7.55;;;10.00;99.90;;;;;;5077918;28;20214;-75
2022/10/27 05:31:24;;;;;;;20.48;8.05;;;10.00;99.90;;;;;;5070897;28;20269;-77
2022/10/27 05:33:50;;;;;;;16.17;6.65;;;10.00;99.90;;;;;;5067041;28;20630;-75
2022/10/27 05:36:15;;;;;;;23.63;6.55;;;10.00;99.90;;;;;;5081921;28;20203;-75
2022/10/27 05:38:43;;;;;;;18.02;6.68;;;10.10;99.90;;;;;;5066139;28;20526;-77
2022/10/27 05:41:09;;;;;;;15.82;6.55;;;10.00;99.90;;;;;;5063908;28;20183;-77
2022/10/27 05:43:40;;;;;;;9.98;6.43;;;10.00;99.90;;;;;;5071846;28;20179;-77
2022/10/27 05:46:07;;;;;;;13.32;6.95;;;10.00;99.90;;;;;;5070043;28;20213;-77
2022/10/27 05:48:33;;;;;;;14.70;7.50;;;9.90;99.90;;;;;;5070559;28;20591;-77
2022/10/27 05:50:58;;;;;;;14.43;7.70;;;10.00;99.90;;;;;;5071389;28;20187;-76
2022/10/27 05:53:24;;;;;;;10.57;6.60;;;10.00;99.90;;;;;;5067435;28;20190;-78
2022/10/27 05:55:53;;;;;;;11.80;6.93;;;10.00;99.90;;;;;;5078468;28;20210;-77
2022/10/27 05:58:19;;;;;;;9.38;6.80;;;10.00;99.90;;;;;;5078422;28;20554;-77
2022/10/27 06:00:45;;;;;;;20.10;7.53;;;10.00;99.90;;;;;;5068392;28;20178;-78
2022/10/27 06:03:22;;;;;;;16.48;6.85;;;10.00;99.90;;;;;;5070017;28;20269;-77
2022/10/27 06:05:48;;;;;;;18.67;7.00;;;10.10;99.90;;;;;;5072028;28;20728;-77
2022/10/27 06:08:14;;;;;;;24.27;7.57;;;10.10;99.90;;;;;;5061962;28;20215;-77
2022/10/27 06:10:40;;;;;;;12.05;6.53;;;10.20;99.90;;;;;;5063807;28;20189;-77
2022/10/27 06:13:07;;;;;;;19.00;6.75;;;10.20;99.90;;;;;;5066476;28;20662;-77
2022/10/27 06:15:33;;;;;;;11.60;10.40;;;10.20;99.90;;;;;;5068743;28;20615;-76
2022/10/27 06:17:59;;;;;;;11.38;7.32;;;10.30;99.90;;;;;;5069642;28;20171;-76
2022/10/27 06:20:25;;;;;;;7.00;6.40;;;10.40;99.90;;;;;;5067244;28;20538;-76
2022/10/27 06:22:51;;;;;;;13.27;6.18;;;10.40;99.90;;;;;;5074110;28;20207;-76
2022/10/27 06:25:17;;;;;;;5.35;4.85;;;10.40;99.90;;;;;;5080389;28;20235;-76
2022/10/27 06:27:43;;;;;;;8.45;5.43;;;10.40;99.90;;;;;;5061631;28;20180;-71
2022/10/27 06:30:08;;;;;;;8.57;5.35;;;10.40;99.90;;;;;;5062963;28;20182;-72
2022/10/27 06:32:38;;;;;;;13.20;5.40;;;10.50;99.90;;;;;;5071951;28;20175;-72
2022/10/27 06:35:05;;;;;;;14.43;5.50;;;10.40;99.90;;;;;;5073767;28;20221;-70
2022/10/27 06:37:31;;;;;;;9.38;5.35;;;10.50;99.90;;;;;;5059906;28;20183;-72
2022/10/27 06:39:56;;;;;;;5.93;5.00;;;10.60;99.90;;;;;;5072564;28;20716;-71
2022/10/27 06:42:23;;;;;;;5.07;4.68;;;10.70;99.90;;;;;;5075497;28;20184;-72
2022/10/27 06:44:49;;;;;;;6.60;5.05;;;10.70;99.90;;;;;;5059437;28;20227;-72
2022/10/27 06:47:15;;;;;;;7.20;5.28;;;10.70;99.90;;;;;;5075710;28;20218;-72
2022/10/27 06:49:40;;;;;;;6.68;5.03;;;10.70;99.90;;;;;;5080584;28;20182;-77
2022/10/27 06:52:06;;;;;;;20.40;5.32;;;10.80;99.90;;;;;;5089749;28;20182;-72
2022/10/27 06:54:32;;;;;;;9.05;5.03;;;10.90;99.90;;;;;;5080364;28;20215;-72
2022/10/27 06:56:57;;;;;;;28.35;6.13;;;10.90;99.90;;;;;;5090623;28;20210;-73
2022/10/27 06:59:23;;;;;;;11.75;6.28;;;10.90;99.90;;;;;;5069864;28;20732;-72
2022/10/27 07:01:49;;;;;;;22.13;5.40;;;11.00;99.90;;;;;;5071685;28;20387;-73
2022/10/27 07:04:14;;;;;;;18.52;6.03;;;11.00;99.90;;;;;;5073462;28;20187;-72
2022/10/27 07:06:40;;;;;;;9.20;5.35;;;11.10;99.90;;;;;;5072828;28;20196;-74
2022/10/27 07:09:06;;;;;;;9.45;5.72;;;11.10;99.90;;;;;;5080043;28;20691;-74
2022/10/27 07:11:31;;;;;;;7.05;5.82;;;11.20;99.90;;;;;;5077679;28;20187;-73
2022/10/27 07:13:57;;;;;;;13.15;6.28;;;11.30;99.90;;;;;;5080177;28;20179;-76
2022/10/27 07:16:23;;;;;;;16.85;6.78;;;11.30;99.90;;;;;;5079614;28;20211;-74
2022/10/27 07:18:49;;;;;;;6.32;5.72;;;11.40;99.90;;;;;;5078515;28;20176;-74
2022/10/27 07:21:15;;;;;;;7.85;5.40;;;11.40;99.90;;;;;;5082128;28;20257;-75
2022/10/27 07:23:40;;;;;;;7.70;5.70;;;11.50;99.90;;;;;;5084006;28;20217;-73
2022/10/27 07:26:06;;;;;;;9.68;6.13;;;11.60;99.90;;;;;;5076197;28;20198;-75
2022/10/27 07:28:32;;;;;;;10.48;6.50;;;11.60;99.90;;;;;;5065178;28;20183;-72
2022/10/27 07:30:57;;;;;;;11.30;5.70;;;11.70;99.90;;;;;;5085262;28;20179;-73
2022/10/27 07:33:23;;;;;;;8.98;5.93;;;11.90;99.90;;;;;;5089953;28;20186;-73
2022/10/27 07:35:50;;;;;;;6.15;5.60;;;12.00;99.90;;;;;;5074166;28;20620;-75
2022/10/27 07:38:16;;;;;;;8.40;6.00;;;12.00;99.90;;;;;;5084589;28;20225;-76
2022/10/27 07:40:42;;;;;;;7.25;6.15;;;12.10;99.90;;;;;;5072950;28;20171;-74
2022/10/27 07:43:08;;;;;;;14.35;6.97;;;12.20;99.90;;;;;;5081512;28;20167;-73
2022/10/27 07:45:36;;;;;;;14.30;7.43;;;12.30;99.90;;;;;;5071152;28;20281;-73
2022/10/27 07:48:01;;;;;;;11.77;6.90;;;12.40;99.90;;;;;;5076242;28;20179;-74
2022/10/27 07:50:28;;;;;;;11.73;7.32;;;12.50;99.90;;;;;;5070742;28;20198;-76
2022/10/27 07:52:55;;;;;;;8.68;6.68;;;12.60;99.90;;;;;;5083513;28;20214;-74
2022/10/27 07:55:22;;;;;;;9.00;6.28;;;12.60;99.90;;;;;;5075971;28;20290;-73
2022/10/27 07:58:08;;;;;;;6.88;6.18;;;12.70;99.90;;;;;;5068948;28;20309;-73
2022/10/27 08:00:35;;;;;;;7.10;6.40;;;12.90;99.90;;;;;;5068424;28;20183;-73
2022/10/27 08:03:02;;;;;;;9.38;7.47;;;12.90;99.90;;;;;;5071252;28;20171;-73
2022/10/27 08:05:29;;;;;;;9.52;6.32;;;13.10;99.90;;;;;;5072527;28;20226;-73
2022/10/27 08:08:02;;;;;;;7.63;6.95;;;13.20;99.90;;;;;;5074007;28;20272;-73
2022/10/27 08:10:29;;;;;;;7.07;6.38;;;13.30;99.90;;;;;;5071192;28;20183;-74
2022/10/27 08:12:56;;;;;;;7.22;6.22;;;13.40;99.90;;;;;;5080666;28;20179;-75
2022/10/27 08:15:21;;;;;;;8.10;6.35;;;13.50;99.90;;;;;;5069999;28;20210;-75
2022/10/27 08:17:56;;;;;;;10.00;6.80;;;13.70;99.90;;;;;;5067979;28;20236;-77
2022/10/27 08:20:32;;;;;;;6.40;5.78;;;13.80;99.90;;;;;;5081532;28;20181;-77
2022/10/27 08:23:01;;;;;;;7.53;6.82;;;14.00;99.90;;;;;;5092825;28;20180;-77
2022/10/27 08:25:27;;;;;;;8.23;6.38;;;14.00;99.90;;;;;;5093032;28;20210;-77
2022/10/27 08:28:01;;;;;;;8.07;6.90;;;14.20;99.90;;;;;;5093778;28;20204;-76
2022/10/27 08:30:30;;;;;;;7.15;6.47;;;14.30;99.90;;;;;;5100043;28;20616;-79
2022/10/27 08:33:01;;;;;;;7.00;6.30;;;14.50;99.90;;;;;;5107089;28;20181;-79
2022/10/27 08:35:30;;;;;;;7.05;6.07;;;14.70;99.90;;;;;;5093739;28;20234;-78
2022/10/27 08:38:09;;;;;;;9.05;6.95;;;14.80;99.90;;;;;;5094458;28;20186;-77
2022/10/27 08:40:57;;;;;;;8.93;7.00;;;15.00;99.90;;;;;;5084416;28;20178;-78
2022/10/27 08:43:45;;;;;;;8.63;6.13;;;15.10;99.90;;;;;;5081422;28;20185;-72
2022/10/27 08:46:22;;;;;;;6.43;5.85;;;15.10;99.90;;;;;;5070098;28;20223;-74
2022/10/27 08:48:50;;;;;;;6.78;6.18;;;15.20;99.90;;;;;;5069471;28;20194;-75
2022/10/27 08:51:21;;;;;;;7.65;6.70;;;15.30;99.90;;;;;;5069711;28;20175;-74
2022/10/27 08:53:51;;;;;;;7.72;6.45;;;15.40;99.90;;;;;;5070347;28;20184;-74
2022/10/27 08:56:16;;;;;;;6.97;6.30;;;15.50;99.90;;;;;;5065602;28;20207;-74
2022/10/27 08:58:46;;;;;;;7.00;6.40;;;15.60;99.90;;;;;;5070102;28;20187;-76
2022/10/27 09:01:36;;;;;;;7.70;6.93;;;15.60;99.90;;;;;;5067305;28;21561;-75
2022/10/27 09:04:23;;;;;;;7.18;6.15;;;15.80;99.90;;;;;;5079194;28;20588;-75
2022/10/27 09:07:17;;;;;;;7.00;6.32;;;15.90;99.90;;;;;;5082460;28;20198;-75
2022/10/27 09:09:59;;;;;;;9.32;7.65;;;16.00;99.90;;;;;;5071903;28;20180;-75
2022/10/27 09:13:05;;;;;;;8.35;7.50;;;16.20;99.90;;;;;;5072682;28;20261;-75
2022/10/27 09:15:39;;;;;;;7.00;6.25;;;16.30;99.90;;;;;;5069506;28;20203;-75
2022/10/27 09:18:20;;;;;;;8.05;6.50;;;16.40;99.90;;;;;;5076631;28;20182;-75
2022/10/27 09:20:51;;;;;;;10.55;7.07;;;16.40;99.90;;;;;;5081256;28;20183;-76
2022/10/27 09:23:20;;;;;;;8.25;7.40;;;16.40;99.90;;;;;;5075275;28;20232;-75
2022/10/27 09:25:50;;;;;;;7.55;5.80;;;16.40;99.90;;;;;;5074545;28;20207;-75
2022/10/27 09:28:31;;;;;;;8.75;7.03;;;16.50;99.90;;;;;;5083978;28;20545;-75
2022/10/27 09:30:58;;;;;;;7.78;6.90;;;16.70;99.90;;;;;;5075911;28;20603;-76
2022/10/27 09:33:29;;;;;;;7.43;6.72;;;16.80;99.90;;;;;;5067685;28;20699;-73
2022/10/27 09:35:56;;;;;;;7.22;6.63;;;17.00;99.90;;;;;;5066151;28;20286;-74
2022/10/27 09:38:24;;;;;;;7.32;6.72;;;17.20;99.90;;;;;;5076197;28;20199;-75
2022/10/27 09:40:51;;;;;;;6.88;6.35;;;17.50;99.90;;;;;;5067227;28;20194;-74
2022/10/27 09:43:19;;;;;;;8.82;6.32;;;17.60;99.90;;;;;;5059760;28;20182;-73
2022/10/27 09:46:02;;;;;;;6.85;6.35;;;17.80;99.90;;;;;;5063482;28;20731;-73
2022/10/27 09:48:28;;;;;;;7.05;6.32;;;18.00;99.90;;;;;;5061347;28;20183;-73
2022/10/27 09:50:59;;;;;;;6.03;5.53;;;18.40;99.90;;;;;;5073963;28;20186;-73
2022/10/27 09:53:39;;;;;;;6.13;5.72;;;18.50;99.90;;;;;;5075384;28;20653;-73
2022/10/27 09:56:09;;;;;;;7.65;6.65;;;18.50;99.90;;;;;;5080053;28;20589;-74
2022/10/27 09:59:01;;;;;;;6.18;5.68;;;18.50;99.90;;;;;;5077402;28;20190;-74
2022/10/27 10:01:41;;;;;;;8.38;6.50;;;18.40;99.90;;;;;;5067504;28;20175;-74
2022/10/27 10:04:29;;;;;;;8.00;6.20;;;18.80;99.90;;;;;;5081012;28;20200;-74
2022/10/27 10:06:56;;;;;;;8.45;6.20;;;18.90;99.90;;;;;;5071719;28;20214;-73
2022/10/27 10:09:33;;;;;;;6.18;5.57;;;19.10;99.90;;;;;;5068731;28;20187;-75
2022/10/27 10:12:22;;;;;;;6.00;5.30;;;19.10;99.90;;;;;;5067200;28;20179;-74
2022/10/27 10:14:48;;;;;;;6.85;5.60;;;19.00;99.90;;;;;;5075556;28;20203;-73
2022/10/27 10:17:22;;;;;;;6.53;5.70;;;19.40;99.90;;;;;;5083982;28;20174;-75
2022/10/27 10:19:49;;;;;;;6.28;5.78;;;19.70;99.90;;;;;;5059308;28;20240;-76
2022/10/27 10:22:27;;;;;;;7.45;6.38;;;20.00;99.90;;;;;;5069207;28;20188;-75
2022/10/27 10:24:55;;;;;;;8.00;6.80;;;20.20;99.90;;;;;;5076223;28;20179;-76
2022/10/27 10:27:33;;;;;;;6.60;6.10;;;20.50;99.90;;;;;;5064622;28;20262;-75
2022/10/27 10:30:04;;;;;;;7.15;6.55;;;20.90;99.90;;;;;;5059984;28;20718;-75
2022/10/27 10:32:36;;;;;;;6.38;5.78;;;22.30;99.90;;;;;;5058856;28;20282;-75
2022/10/27 10:35:41;;;;;;;6.65;6.05;;;24.20;99.90;;;;;;5063442;28;20316;-75
2022/10/27 10:38:26;;;;;;;6.22;5.63;;;25.50;99.90;;;;;;5070604;28;20175;-75
2022/10/27 10:41:12;;;;;;;7.05;5.80;;;27.00;99.50;;;;;;5071050;28;20232;-75
2022/10/27 10:43:39;;;;;;;6.57;5.97;;;28.20;94.90;;;;;;5068923;28;20659;-75
2022/10/27 10:46:10;;;;;;;6.70;6.10;;;27.50;92.80;;;;;;5071689;28;20645;-75
2022/10/27 10:48:45;;;;;;;6.22;5.72;;;27.20;93.10;;;;;;5066592;28;20196;-73
2022/10/27 10:51:12;;;;;;;6.40;5.80;;;28.30;92.10;;;;;;5075829;28;20185;-73
2022/10/27 10:53:48;;;;;;;8.05;6.15;;;30.10;84.80;;;;;;5072036;28;20241;-73
2022/10/27 10:56:21;;;;;;;6.95;6.18;;;30.40;81.30;;;;;;5062177;28;20220;-73
2022/10/27 10:58:51;;;;;;;6.18;5.43;;;31.30;76.40;;;;;;5056757;28;20258;-73
2022/10/27 11:01:17;;;;;;;6.47;5.40;;;32.60;72.80;;;;;;5065737;28;20179;-73
2022/10/27 11:03:46;;;;;;;5.70;5.22;;;33.50;67.90;;;;;;5075495;28;20202;-73
2022/10/27 11:06:18;;;;;;;6.35;5.85;;;34.40;64.20;;;;;;5072020;28;20216;-73
2022/10/27 11:08:56;;;;;;;7.28;5.88;;;34.80;60.80;;;;;;5068885;28;20191;-73
2022/10/27 11:11:25;;;;;;;6.38;5.88;;;35.10;59.10;;;;;;5066440;28;20182;-73
2022/10/27 11:14:13;;;;;;;6.40;5.80;;;36.00;56.60;;;;;;5073489;28;20186;-73
2022/10/27 11:16:50;;;;;;;6.10;5.50;;;36.30;56.90;;;;;;5067615;28;20210;-73
2022/10/27 11:19:18;;;;;;;4.68;4.25;;;36.70;54.80;;;;;;5063650;28;20170;-73
2022/10/27 11:22:10;;;;;;;5.03;4.63;;;36.80;53.90;;;;;;5067679;28;20554;-75
2022/10/27 11:24:46;;;;;;;5.65;4.97;;;37.40;51.90;;;;;;5071369;28;20174;-75
2022/10/27 11:27:16;;;;;;;5.95;4.78;;;36.80;53.00;;;;;;5065325;28;20223;-76
2022/10/27 11:30:03;;;;;;;6.57;4.80;;;36.50;53.10;;;;;;5062518;28;20659;-76
2022/10/27 11:32:32;;;;;;;4.47;4.07;;;36.30;53.80;;;;;;5067511;28;20369;-76
2022/10/27 11:35:16;;;;;;;5.05;4.47;;;36.80;52.70;;;;;;5067059;28;20657;-76
2022/10/27 11:37:50;;;;;;;4.93;4.53;;;37.20;52.00;;;;;;5064874;28;20184;-75
2022/10/27 11:40:34;;;;;;;5.60;4.05;;;37.20;51.90;;;;;;5064553;28;20178;-75
2022/10/27 11:43:06;;;;;;;5.38;4.90;;;37.50;50.80;;;;;;5059428;28;20179;-76
2022/10/27 11:45:52;;;;;;;4.35;4.05;;;38.10;50.00;;;;;;5067979;28;20662;-77
2022/10/27 11:48:39;;;;;;;6.57;4.53;;;38.20;49.90;;;;;;5069454;28;20189;-75
2022/10/27 11:51:13;;;;;;;7.88;4.40;;;38.50;49.30;;;;;;5065671;28;20308;-75
2022/10/27 11:53:38;;;;;;;4.20;3.90;;;38.90;48.70;;;;;;5065491;28;20183;-73
2022/10/27 11:56:19;;;;;;;4.65;4.35;;;38.40;49.70;;;;;;5070661;28;20214;-74
2022/10/27 11:59:15;;;;;;;6.38;4.00;;;38.40;49.40;;;;;;5064720;28;20220;-74
2022/10/27 12:01:41;;;;;;;5.10;4.60;;;38.90;49.00;;;;;;5072992;28;20177;-73
2022/10/27 12:04:21;;;;;;;6.95;4.10;;;39.10;48.70;;;;;;5081589;28;20622;-72
2022/10/27 12:07:03;;;;;;;5.82;4.55;;;38.90;48.50;;;;;;5068991;28;20202;-74
2022/10/27 12:09:34;;;;;;;3.88;3.47;;;39.40;48.10;;;;;;5075649;28;20206;-72
2022/10/27 12:12:06;;;;;;;3.55;3.25;;;39.70;47.70;;;;;;5062803;28;20499;-75
2022/10/27 12:15:10;;;;;;;3.80;3.50;;;39.40;47.80;;;;;;5062826;28;20175;-73
2022/10/27 12:17:42;;;;;;;4.32;3.92;;;38.80;48.40;;;;;;5039323;28;20959;-73
2022/10/27 12:20:13;;;;;;;5.65;3.65;;;38.20;48.80;;;;;;5072342;28;20200;-72
2022/10/27 12:23:15;;;;;;;7.20;4.00;;;38.10;49.60;;;;;;5066974;28;20183;-73
2022/10/27 12:25:51;;;;;;;4.05;3.45;;;37.80;50.10;;;;;;5054229;28;20260;-71
2022/10/27 12:28:18;;;;;;;5.85;3.50;;;37.80;50.10;;;;;;5069029;28;20184;-71
2022/10/27 12:30:46;;;;;;;4.20;3.28;;;37.80;49.90;;;;;;5081137;28;20228;-70
2022/10/27 12:33:23;;;;;;;5.78;3.47;;;37.90;49.60;;;;;;5075575;28;20182;-70
2022/10/27 12:35:58;;;;;;;5.28;3.88;;;37.60;50.00;;;;;;5078638;28;20209;-71
2022/10/27 12:38:34;;;;;;;4.28;3.70;;;37.30;50.70;;;;;;5076533;28;20182;-72
2022/10/27 12:41:11;;;;;;;4.20;3.50;;;37.30;50.60;;;;;;5061787;28;20180;-71
2022/10/27 12:44:16;;;;;;;5.35;3.65;;;36.60;51.20;;;;;;5060146;28;20198;-71
2022/10/27 12:47:29;;;;;;;5.43;3.70;;;35.50;52.60;;;;;;5068730;28;20221;-71
2022/10/27 12:50:18;;;;;;;4.45;3.70;;;33.50;56.10;;;;;;5071066;28;20267;-71
2022/10/27 12:53:15;;;;;;;5.03;3.63;;;32.80;58.00;;;;;;5063547;28;20197;-70
2022/10/27 12:56:22;;;;;;;6.80;3.60;;;32.90;57.80;;;;;;5060415;28;20268;-69
2022/10/27 12:58:58;;;;;;;5.03;3.67;;;32.20;59.00;;;;;;5045007;28;20280;-70
2022/10/27 13:01:55;;;;;;;5.50;3.58;;;31.50;60.10;;;;;;5071711;28;20162;-71
2022/10/27 13:04:27;;;;;;;11.30;3.70;;;30.70;61.90;;;;;;5055879;28;20194;-72
2022/10/27 13:07:05;;;;;;;5.68;3.72;;;29.60;65.10;;;;;;5065884;28;20203;-72